Forside
METAR-TAF:

METAR-TAF

Lufthavne :

Odate-Noshiro, Japan

Breddekreds: 40-11N, længdekreds: 140-12E, højde: 84 m

Aktuelle vejr

Denne rapport blev lavet for 7 timer og 51 minutter siden, kl. 10:00 UTC
Vind 5 kt fra sydsydvest
Temperatur 3°C
Fugtighed 81%
Tryk 1002 hPa
Sigt 10 km eller mere
Nogle få skyer i en højde af 1000 ft
Spredte skyer i en højde af 2000 ft
Brudte skyer i en højde af 4000 ft
byger i nærheden

METAR: RJSR 171000Z 20005KT 9999 VCSH FEW010 SCT020 BKN040 03/M00 Q1002

Tid: 02:51 (17:51 UTC)


TAF: fraværende

Vejrobservationer og prognoser fra mere end 4000 lufthavne (METAR og TAF).

De gule og røde prikker repræsenterer de meteorologiske stationer.

Flyt musen over at se navnet på stationen.

Så klik over at se vejr observationer og prognoser.

At skifte det kort: Klik på de grønne knapper med et sort kors for at zoome ind; på den grønne knap med en bindestreg for at zoome ud; eller på de grønne pile for tilstødende kort.


METAR-TAF: